createdAt,value
2022-08-22T00:01:08.585Z,1
2022-08-22T00:03:05.355Z,1
2022-08-22T00:03:05.385Z,1
2022-08-22T00:05:10.543Z,1
2022-08-22T00:07:08.044Z,1
2022-08-22T00:09:08.016Z,1
2022-08-22T00:11:08.082Z,1
2022-08-22T00:13:08.131Z,1
2022-08-22T00:15:08.358Z,1
2022-08-22T00:17:09.119Z,1
2022-08-22T00:19:08.035Z,1
2022-08-22T00:21:11.744Z,1
2022-08-22T00:23:08.567Z,1
2022-08-22T00:25:22.825Z,1
2022-08-22T00:27:08.361Z,1
2022-08-22T00:29:08.150Z,1
2022-08-22T00:31:08.061Z,1
2022-08-22T00:35:08.332Z,1
2022-08-22T00:37:16.094Z,1
2022-08-22T00:39:14.782Z,1
2022-08-22T00:41:08.061Z,1
2022-08-22T00:43:08.618Z,1
2022-08-22T00:45:17.462Z,1
2022-08-22T00:47:08.350Z,1
2022-08-22T00:49:08.755Z,1
2022-08-22T00:51:15.885Z,1
2022-08-22T00:53:12.191Z,1
2022-08-22T00:55:08.371Z,1
2022-08-22T00:57:09.020Z,1
2022-08-22T00:59:18.148Z,1
2022-08-22T01:01:16.171Z,1
2022-08-22T01:03:08.155Z,1
2022-08-22T01:05:08.977Z,1
2022-08-22T01:07:10.783Z,1
2022-08-22T01:09:08.267Z,1
2022-08-22T01:11:08.577Z,1
2022-08-22T01:13:12.692Z,1
2022-08-22T01:15:15.182Z,1
2022-08-22T01:17:12.623Z,1
2022-08-22T01:19:08.700Z,1
2022-08-22T01:21:08.137Z,1
2022-08-22T01:23:12.645Z,1
2022-08-22T01:25:12.911Z,1
2022-08-22T01:29:10.346Z,1
2022-08-22T01:31:08.251Z,1
2022-08-22T01:33:08.876Z,1
2022-08-22T01:35:11.633Z,1
2022-08-22T01:37:08.802Z,1
2022-08-22T01:39:08.155Z,1
2022-08-22T01:41:09.521Z,1
2022-08-22T01:43:08.578Z,1
2022-08-22T01:45:09.252Z,1
2022-08-22T01:47:08.242Z,1
2022-08-22T01:49:12.813Z,1
2022-08-22T01:51:12.705Z,1
2022-08-22T01:53:08.197Z,1
2022-08-22T01:55:08.632Z,1
2022-08-22T01:57:09.638Z,1
2022-08-22T01:59:11.473Z,1
2022-08-22T02:01:08.305Z,1
2022-08-22T02:03:08.139Z,1
2022-08-22T02:05:08.177Z,1
2022-08-22T02:07:12.194Z,1
2022-08-22T02:09:08.969Z,1
2022-08-22T02:11:11.993Z,1
2022-08-22T02:13:08.139Z,1
2022-08-22T02:15:08.147Z,1
2022-08-22T02:17:09.508Z,1
2022-08-22T02:19:10.190Z,1
2022-08-22T02:21:11.309Z,1
2022-08-22T02:23:08.086Z,1
2022-08-22T02:25:08.878Z,1
2022-08-22T02:27:08.275Z,1
2022-08-22T02:29:08.388Z,1
2022-08-22T02:31:09.518Z,1
2022-08-22T02:33:08.163Z,1
2022-08-22T02:35:08.803Z,1
2022-08-22T02:37:08.706Z,1
2022-08-22T02:39:08.117Z,1
2022-08-22T02:41:10.026Z,1
2022-08-22T02:43:12.228Z,1
2022-08-22T02:45:08.402Z,1
2022-08-22T02:47:09.011Z,1
2022-08-22T02:49:09.328Z,1
2022-08-22T02:51:11.943Z,1
2022-08-22T02:53:08.435Z,1
2022-08-22T02:55:08.150Z,1
2022-08-22T02:57:14.107Z,1
2022-08-22T02:59:08.558Z,1
2022-08-22T03:01:12.870Z,1
2022-08-22T03:03:11.606Z,1
2022-08-22T03:05:08.193Z,1
2022-08-22T03:09:11.433Z,1
2022-08-22T03:11:08.379Z,1
2022-08-22T03:13:08.207Z,1
2022-08-22T03:15:09.288Z,1
2022-08-22T03:17:08.077Z,1
2022-08-22T03:19:08.240Z,1
2022-08-22T03:21:11.155Z,1
2022-08-22T03:23:08.659Z,1
2022-08-22T03:25:16.838Z,1
2022-08-22T03:27:08.686Z,0
2022-08-22T03:29:12.800Z,0
2022-08-22T03:31:08.357Z,0
2022-08-22T03:33:08.163Z,0
2022-08-22T03:35:08.120Z,0
2022-08-22T03:37:12.607Z,0.1
2022-08-22T03:39:16.553Z,0.2
2022-08-22T03:41:08.191Z,0.2
2022-08-22T03:43:08.199Z,0.3
2022-08-22T03:45:09.076Z,0.4
2022-08-22T03:47:09.601Z,0.6
2022-08-22T03:49:08.100Z,0.9
2022-08-22T03:51:08.462Z,1.3
2022-08-22T03:53:10.412Z,1.7
2022-08-22T03:55:08.201Z,2.3
2022-08-22T03:57:08.470Z,3.3
2022-08-22T03:59:09.827Z,4.5
2022-08-22T04:01:17.185Z,6.4
2022-08-22T04:03:08.186Z,8.6
2022-08-22T04:05:08.237Z,11.6
2022-08-22T04:07:08.877Z,14.9
2022-08-22T04:09:08.879Z,19.1
2022-08-22T04:11:09.805Z,24.5
2022-08-22T04:13:08.216Z,30
2022-08-22T04:15:08.246Z,38.5
2022-08-22T04:17:09.516Z,49.4
2022-08-22T04:19:15.929Z,60.3
2022-08-22T04:21:08.195Z,73.7
2022-08-22T04:23:10.303Z,90
2022-08-22T04:25:15.911Z,109.9
2022-08-22T04:27:12.726Z,134.3
2022-08-22T04:29:14.446Z,156
2022-08-22T04:33:08.351Z,221.4
2022-08-22T04:35:09.412Z,257.2
2022-08-22T04:37:09.663Z,314.2
2022-08-22T04:39:12.551Z,365
2022-08-22T04:41:12.200Z,445.9
2022-08-22T04:43:08.251Z,492.7
2022-08-22T04:45:12.392Z,544.6
2022-08-22T04:47:09.288Z,601.8
2022-08-22T04:49:13.446Z,665.1
2022-08-22T04:51:08.242Z,699.2
2022-08-22T04:53:09.050Z,735.1
2022-08-22T04:55:12.703Z,772.8
2022-08-22T04:57:12.484Z,854.1
2022-08-22T04:59:08.476Z,897.8
2022-08-22T05:01:08.249Z,1043.1
2022-08-22T05:03:08.443Z,1152.9
2022-08-22T05:05:10.456Z,1212
2022-08-22T05:07:13.355Z,1339.4
2022-08-22T05:09:08.862Z,1408.1
2022-08-22T05:11:15.881Z,1480.3
2022-08-22T05:13:09.677Z,1556.2
2022-08-22T05:15:09.729Z,1556.2
2022-08-22T05:17:09.076Z,1636
2022-08-22T05:19:11.111Z,1636
2022-08-22T05:21:08.662Z,1636
2022-08-22T05:23:17.342Z,1719.9
2022-08-22T05:25:08.879Z,1719.9
2022-08-22T05:27:08.313Z,1808
2022-08-22T05:29:12.908Z,1808
2022-08-22T05:31:12.446Z,1900.7
2022-08-22T05:33:11.758Z,1900.7
2022-08-22T05:37:15.248Z,1998.2
2022-08-22T05:39:08.361Z,1998.2
2022-08-22T05:41:09.733Z,1998.2
2022-08-22T05:43:08.679Z,2100.6
2022-08-22T05:45:11.629Z,2100.6
2022-08-22T05:47:08.815Z,2100.6
2022-08-22T05:49:09.859Z,2208.3
2022-08-22T05:53:08.682Z,2321.6
2022-08-22T05:55:14.987Z,2321.6
2022-08-22T05:57:08.156Z,2321.6
2022-08-22T05:59:12.852Z,2440.6
2022-08-22T06:01:08.213Z,2440.6
2022-08-22T06:03:12.589Z,2440.6
2022-08-22T06:05:12.349Z,2565.7
2022-08-22T06:07:08.918Z,2565.7
2022-08-22T06:09:09.078Z,2697.3
2022-08-22T06:11:09.458Z,2697.3
2022-08-22T06:13:09.012Z,2835.6
2022-08-22T06:15:12.638Z,2981
2022-08-22T06:17:09.400Z,3463.4
2022-08-22T06:19:19.040Z,4447.1
2022-08-22T06:21:15.324Z,4914.8
2022-08-22T06:23:08.390Z,5166.8
2022-08-22T06:25:11.004Z,5431.7
2022-08-22T06:27:08.834Z,5710.1
2022-08-22T06:29:13.239Z,6002.9
2022-08-22T06:31:08.902Z,6310.7
2022-08-22T06:33:08.110Z,6310.7
2022-08-22T06:35:14.768Z,6634.2
2022-08-22T06:37:08.224Z,6002.9
2022-08-22T06:39:15.595Z,7707.9
2022-08-22T06:41:08.861Z,6974.4
2022-08-22T06:43:09.304Z,8103.1
2022-08-22T06:45:12.232Z,8103.1
2022-08-22T06:47:08.427Z,8518.5
2022-08-22T06:51:08.328Z,4675.1
2022-08-22T06:53:08.969Z,3641
2022-08-22T06:55:08.847Z,4023.9
2022-08-22T06:57:08.563Z,4447.1
2022-08-22T06:59:12.826Z,4023.9
2022-08-22T07:01:11.114Z,4447.1
2022-08-22T07:03:15.851Z,4447.1
2022-08-22T07:05:08.309Z,4447.1
2022-08-22T07:07:12.449Z,4447.1
2022-08-22T07:09:11.741Z,4447.1
2022-08-22T07:11:12.276Z,4914.8
2022-08-22T07:13:08.620Z,5710.1
2022-08-22T07:15:08.379Z,6310.7
2022-08-22T07:17:08.260Z,5710.1
2022-08-22T07:19:15.346Z,6310.7
2022-08-22T07:21:08.311Z,5710.1
2022-08-22T07:23:08.859Z,5431.7
2022-08-22T07:25:08.433Z,5431.7
2022-08-22T07:27:16.053Z,5431.7
2022-08-22T07:29:11.849Z,4447.1
2022-08-22T07:31:08.274Z,4447.1
2022-08-22T07:33:17.788Z,5166.8
2022-08-22T07:35:08.264Z,5166.8
2022-08-22T07:37:09.052Z,5166.8
2022-08-22T07:39:11.109Z,5166.8
2022-08-22T07:41:15.901Z,5431.7
2022-08-22T07:43:08.149Z,5431.7
2022-08-22T07:45:09.034Z,5431.7
2022-08-22T07:47:10.397Z,5431.7
2022-08-22T07:49:15.631Z,5710.1
2022-08-22T07:51:09.075Z,5710.1
2022-08-22T07:53:08.529Z,5710.1
2022-08-22T07:55:12.228Z,5710.1
2022-08-22T07:57:08.178Z,6002.9
2022-08-22T07:59:12.875Z,6002.9
2022-08-22T08:01:11.462Z,6002.9
2022-08-22T08:03:08.378Z,6002.9
2022-08-22T08:05:12.847Z,6310.7
2022-08-22T08:07:08.457Z,6310.7
2022-08-22T08:09:08.359Z,6310.7
2022-08-22T08:11:12.635Z,6310.7
2022-08-22T08:13:08.905Z,6310.7
2022-08-22T08:15:08.913Z,6310.7
2022-08-22T08:17:11.617Z,6310.7
2022-08-22T08:19:08.239Z,6310.7
2022-08-22T08:21:11.600Z,6310.7
2022-08-22T08:23:08.263Z,6310.7
2022-08-22T08:25:08.592Z,6310.7
2022-08-22T08:27:08.223Z,6310.7
2022-08-22T08:29:12.963Z,6310.7
2022-08-22T08:31:09.479Z,6634.2
2022-08-22T08:33:24.583Z,6634.2
2022-08-22T08:35:08.761Z,6634.2
2022-08-22T08:37:08.923Z,6634.2
2022-08-22T08:39:09.109Z,6634.2
2022-08-22T08:41:10.066Z,6974.4
2022-08-22T08:45:08.259Z,6974.4
2022-08-22T08:47:13.059Z,6974.4
2022-08-22T08:49:08.282Z,6974.4
2022-08-22T08:51:09.326Z,6974.4
2022-08-22T08:53:08.305Z,6974.4
2022-08-22T08:55:22.127Z,6974.4
2022-08-22T08:57:11.377Z,6974.4
2022-08-22T08:59:09.926Z,6974.4
2022-08-22T09:03:08.177Z,6974.4
2022-08-22T09:05:12.048Z,6974.4
2022-08-22T09:07:08.151Z,7332
2022-08-22T09:09:12.731Z,7332
2022-08-22T09:11:14.342Z,7332
2022-08-22T09:13:11.981Z,7332
2022-08-22T09:15:14.380Z,7707.9
2022-08-22T09:17:08.903Z,7707.9
2022-08-22T09:19:08.310Z,7707.9
2022-08-22T09:21:09.082Z,7707.9
2022-08-22T09:23:10.181Z,8103.1
2022-08-22T09:25:08.295Z,8103.1
2022-08-22T09:27:12.945Z,8103.1
2022-08-22T09:29:12.918Z,8518.5
2022-08-22T09:31:16.712Z,8103.1
2022-08-22T09:33:08.367Z,8103.1
2022-08-22T09:35:11.739Z,8103.1
2022-08-22T09:37:08.878Z,8103.1
2022-08-22T09:39:09.394Z,8103.1
2022-08-22T09:41:12.494Z,8103.1
2022-08-22T09:43:08.696Z,8103.1
2022-08-22T09:45:08.177Z,8103.1
2022-08-22T09:47:08.311Z,8103.1
2022-08-22T09:49:12.588Z,8103.1
2022-08-22T09:51:29.106Z,8103.1
2022-08-22T09:53:08.871Z,8103.1
2022-08-22T09:55:13.435Z,8103.1
2022-08-22T09:57:08.795Z,8103.1
2022-08-22T09:59:09.693Z,8103.1
2022-08-22T10:01:12.313Z,8103.1
2022-08-22T10:03:08.729Z,8103.1
2022-08-22T10:05:12.838Z,8103.1
2022-08-22T10:07:11.825Z,8103.1
2022-08-22T10:09:12.099Z,7707.9
2022-08-22T10:11:11.354Z,7707.9
2022-08-22T10:13:10.228Z,7707.9
2022-08-22T10:15:09.226Z,7707.9
2022-08-22T10:17:09.337Z,8103.1
2022-08-22T10:19:09.252Z,8103.1
2022-08-22T10:21:09.682Z,8103.1
2022-08-22T10:23:09.591Z,8103.1
2022-08-22T10:25:12.878Z,8103.1
2022-08-22T10:27:08.717Z,8103.1
2022-08-22T10:29:09.189Z,8103.1
2022-08-22T10:33:08.216Z,8103.1
2022-08-22T10:35:09.609Z,8518.5
2022-08-22T10:37:09.851Z,8518.5
2022-08-22T10:39:11.438Z,8518.5
2022-08-22T10:41:09.368Z,8518.5
2022-08-22T10:43:12.849Z,8518.5
2022-08-22T10:45:08.302Z,8518.5
2022-08-22T10:47:12.914Z,8518.5
2022-08-22T10:49:09.230Z,8518.5
2022-08-22T10:51:09.893Z,8518.5
2022-08-22T10:53:09.238Z,8518.5
2022-08-22T10:55:10.171Z,8955.3
2022-08-22T10:57:14.282Z,8955.3
2022-08-22T10:59:08.982Z,8955.3
2022-08-22T11:01:37.289Z,8955.3
2022-08-22T11:03:18.781Z,8955.3
2022-08-22T11:05:08.322Z,8955.3
2022-08-22T11:07:10.230Z,8955.3
2022-08-22T11:09:08.246Z,8955.3
2022-08-22T11:11:16.148Z,8955.3
2022-08-22T11:13:08.433Z,8955.3
2022-08-22T11:15:11.787Z,9414.4
2022-08-22T11:17:28.146Z,8955.3
2022-08-22T11:19:14.841Z,8955.3
2022-08-22T11:21:08.772Z,9414.4
2022-08-22T11:23:08.814Z,9414.4
2022-08-22T11:25:12.754Z,6974.4
2022-08-22T11:27:08.982Z,9897.1
2022-08-22T11:29:12.331Z,9897.1
2022-08-22T11:31:12.010Z,9414.4
2022-08-22T11:33:09.498Z,9897.1
2022-08-22T11:35:11.509Z,9897.1
2022-08-22T11:37:10.954Z,9414.4
2022-08-22T11:39:18.106Z,9897.1
2022-08-22T11:41:09.103Z,9897.1
2022-08-22T11:43:10.652Z,10404.6
2022-08-22T11:45:08.514Z,9897.1
2022-08-22T11:47:14.262Z,9897.1
2022-08-22T11:49:08.256Z,9897.1
2022-08-22T11:51:13.455Z,9414.4
2022-08-22T11:53:11.973Z,9414.4
2022-08-22T11:55:08.802Z,9414.4
2022-08-22T11:57:08.878Z,9414.4
2022-08-22T11:59:08.490Z,9414.4
2022-08-22T12:01:11.788Z,9414.4
2022-08-22T12:03:12.852Z,9414.4
2022-08-22T12:05:12.128Z,9897.1
2022-08-22T12:07:08.305Z,9414.4
2022-08-22T12:09:12.501Z,8955.3
2022-08-22T12:11:08.439Z,8955.3
2022-08-22T12:13:08.485Z,8518.5
2022-08-22T12:15:12.675Z,8518.5
2022-08-22T12:17:08.894Z,8518.5
2022-08-22T12:19:08.682Z,8518.5
2022-08-22T12:21:09.072Z,8518.5
2022-08-22T12:23:12.726Z,8103.1
2022-08-22T12:25:08.541Z,8103.1
2022-08-22T12:27:10.281Z,7332
2022-08-22T12:29:15.025Z,8103.1
2022-08-22T12:31:13.001Z,8103.1
2022-08-22T12:33:08.298Z,8103.1
2022-08-22T12:35:13.561Z,8103.1
2022-08-22T12:37:08.554Z,8103.1
2022-08-22T12:39:09.156Z,7707.9
2022-08-22T12:41:12.756Z,7707.9
2022-08-22T12:43:08.759Z,7707.9
2022-08-22T12:45:08.905Z,7707.9
2022-08-22T12:47:09.984Z,7707.9
2022-08-22T12:49:08.861Z,7707.9
2022-08-22T12:51:16.736Z,7707.9
2022-08-22T12:53:09.084Z,7707.9
2022-08-22T12:55:09.730Z,7707.9
2022-08-22T12:57:10.432Z,8103.1
2022-08-22T12:59:12.525Z,8103.1
2022-08-22T13:01:08.408Z,8103.1
2022-08-22T13:03:09.449Z,8103.1
2022-08-22T13:05:08.818Z,8518.5
2022-08-22T13:07:09.043Z,8518.5
2022-08-22T13:09:09.941Z,8518.5
2022-08-22T13:11:09.786Z,8518.5
2022-08-22T13:13:12.452Z,8518.5
2022-08-22T13:15:10.854Z,8103.1
2022-08-22T13:17:10.066Z,8103.1
2022-08-22T13:19:13.608Z,8103.1
2022-08-22T13:21:14.524Z,7707.9
2022-08-22T13:23:12.462Z,8103.1
2022-08-22T13:25:08.561Z,8103.1
2022-08-22T13:27:08.278Z,8103.1
2022-08-22T13:29:24.952Z,8103.1
2022-08-22T13:31:08.535Z,8518.5
2022-08-22T13:33:09.080Z,8103.1
2022-08-22T13:35:08.846Z,8103.1
2022-08-22T13:37:13.015Z,8103.1
2022-08-22T13:39:08.475Z,7707.9
2022-08-22T13:41:09.041Z,8103.1
2022-08-22T13:43:09.243Z,6974.4
2022-08-22T13:45:14.256Z,7332
2022-08-22T13:47:14.099Z,7332
2022-08-22T13:49:08.276Z,7332
2022-08-22T13:51:09.447Z,7707.9
2022-08-22T13:53:08.881Z,7707.9
2022-08-22T13:55:12.369Z,7332
2022-08-22T13:57:08.598Z,7332
2022-08-22T13:59:09.600Z,7332
2022-08-22T14:01:08.508Z,7707.9
2022-08-22T14:03:09.594Z,7332
2022-08-22T14:05:08.333Z,7332
2022-08-22T14:07:09.308Z,7332
2022-08-22T14:09:08.853Z,6974.4
2022-08-22T14:11:09.793Z,7332
2022-08-22T14:13:12.457Z,6974.4
2022-08-22T14:15:08.957Z,6974.4
2022-08-22T14:17:08.313Z,6974.4
2022-08-22T14:19:11.730Z,6974.4
2022-08-22T14:21:09.065Z,6974.4
2022-08-22T14:23:09.091Z,6974.4
2022-08-22T14:25:08.778Z,6974.4
2022-08-22T14:27:08.215Z,6634.2
2022-08-22T14:29:09.726Z,6634.2
2022-08-22T14:31:10.068Z,6634.2
2022-08-22T14:33:08.446Z,6634.2
2022-08-22T14:35:17.082Z,6634.2
2022-08-22T14:37:08.832Z,6634.2
2022-08-22T14:39:12.817Z,6310.7
2022-08-22T14:41:08.818Z,6310.7
2022-08-22T14:43:09.252Z,6310.7
2022-08-22T14:45:12.523Z,6310.7
2022-08-22T14:47:08.427Z,6002.9
2022-08-22T14:49:12.969Z,6310.7
2022-08-22T14:51:09.669Z,6310.7
2022-08-22T14:53:09.095Z,6310.7
2022-08-22T14:55:08.762Z,6310.7
2022-08-22T14:57:10.232Z,6002.9
2022-08-22T14:59:08.876Z,6002.9
2022-08-22T15:01:08.482Z,6002.9
2022-08-22T15:03:12.626Z,6002.9
2022-08-22T15:05:08.881Z,5710.1
2022-08-22T15:07:08.344Z,5710.1
2022-08-22T15:09:08.360Z,5710.1
2022-08-22T15:11:08.683Z,5710.1
2022-08-22T15:13:08.765Z,5710.1
2022-08-22T15:15:12.109Z,5710.1
2022-08-22T15:17:09.115Z,5710.1
2022-08-22T15:19:13.492Z,5431.7
2022-08-22T15:21:08.698Z,5431.7
2022-08-22T15:23:09.678Z,5431.7
2022-08-22T15:25:08.468Z,5431.7
2022-08-22T15:27:13.424Z,5166.8
2022-08-22T15:29:08.363Z,5166.8
2022-08-22T15:31:09.005Z,4675.1
2022-08-22T15:33:08.866Z,4914.8
2022-08-22T15:35:08.284Z,4914.8
2022-08-22T15:37:10.962Z,4914.8
2022-08-22T15:39:08.358Z,4914.8
2022-08-22T15:41:09.208Z,4914.8
2022-08-22T15:43:08.738Z,4914.8
2022-08-22T15:45:12.939Z,4675.1
2022-08-22T15:47:24.405Z,4675.1
2022-08-22T15:49:10.712Z,4675.1
2022-08-22T15:51:09.687Z,4675.1
2022-08-22T15:53:09.506Z,4447.1
2022-08-22T15:55:09.009Z,4447.1
2022-08-22T15:57:08.249Z,4447.1
2022-08-22T15:59:08.397Z,4447.1
2022-08-22T16:01:10.009Z,4230.2
2022-08-22T16:03:13.032Z,4230.2
2022-08-22T16:05:09.175Z,4230.2
2022-08-22T16:07:09.508Z,4230.2
2022-08-22T16:09:12.558Z,4023.9
2022-08-22T16:11:08.943Z,4023.9
2022-08-22T16:13:08.642Z,4023.9
2022-08-22T16:15:12.447Z,3827.6
2022-08-22T16:17:12.820Z,3827.6
2022-08-22T16:19:08.271Z,3827.6
2022-08-22T16:21:15.852Z,3641
2022-08-22T16:23:09.120Z,3641
2022-08-22T16:25:10.217Z,3463.4
2022-08-22T16:27:12.610Z,3463.4
2022-08-22T16:31:09.034Z,3463.4
2022-08-22T16:33:18.064Z,3294.5
2022-08-22T16:35:08.424Z,3294.5
2022-08-22T16:37:09.227Z,3133.8
2022-08-22T16:39:13.027Z,3133.8
2022-08-22T16:41:08.347Z,3133.8
2022-08-22T16:43:12.523Z,2981
2022-08-22T16:45:12.939Z,2981
2022-08-22T16:47:09.291Z,2835.6
2022-08-22T16:49:08.339Z,2835.6
2022-08-22T16:51:12.915Z,2697.3
2022-08-22T16:53:16.131Z,2697.3
2022-08-22T16:55:08.500Z,2697.3
2022-08-22T16:57:09.289Z,2565.7
2022-08-22T16:59:22.751Z,2440.6
2022-08-22T17:01:12.828Z,2440.6
2022-08-22T17:03:08.509Z,2321.6
2022-08-22T17:05:08.480Z,2321.6
2022-08-22T17:07:18.573Z,2208.3
2022-08-22T17:09:08.281Z,2208.3
2022-08-22T17:11:09.619Z,2100.6
2022-08-22T17:13:08.346Z,2100.6
2022-08-22T17:15:16.026Z,1998.2
2022-08-22T17:17:13.053Z,1900.7
2022-08-22T17:19:13.541Z,1900.7
2022-08-22T17:21:09.533Z,1808
2022-08-22T17:23:12.238Z,1719.9
2022-08-22T17:29:20.610Z,1480.3
2022-08-22T17:31:18.543Z,1408.1
2022-08-22T17:33:23.504Z,1339.4
2022-08-22T17:35:18.778Z,1274.1
2022-08-22T17:37:25.078Z,1212
2022-08-22T17:39:25.102Z,1096.6
2022-08-22T17:41:18.107Z,1043.1
2022-08-22T17:43:17.887Z,943.9
2022-08-22T17:45:18.727Z,897.8
2022-08-22T17:47:18.480Z,812.4
2022-08-22T17:49:18.647Z,735.1
2022-08-22T17:51:19.392Z,665.1
2022-08-22T17:53:17.905Z,632.7
2022-08-22T17:55:18.583Z,572.5
2022-08-22T17:57:18.734Z,518
2022-08-22T17:59:25.032Z,468.7
2022-08-22T18:01:18.673Z,424.1
2022-08-22T18:03:18.571Z,383.8
2022-08-22T18:05:18.549Z,347.2
2022-08-22T18:07:21.515Z,298.9
2022-08-22T18:09:18.405Z,270.4
2022-08-22T18:11:24.683Z,232.8
2022-08-22T18:13:17.875Z,200.3
2022-08-22T18:15:25.040Z,172.4
2022-08-22T18:17:18.706Z,141.2
2022-08-22T18:19:17.810Z,115.6
2022-08-22T18:21:18.458Z,90
2022-08-22T18:23:21.621Z,73.7
2022-08-22T18:25:18.415Z,57.4
2022-08-22T18:27:29.588Z,42.5
2022-08-22T18:29:17.928Z,31.5
2022-08-22T18:31:17.916Z,23.3
2022-08-22T18:33:26.752Z,16.4
2022-08-22T18:35:18.510Z,12.8
2022-08-22T18:37:18.352Z,9
2022-08-22T18:39:17.777Z,6.4
2022-08-22T18:41:18.559Z,4.5
2022-08-22T18:43:21.625Z,3
2022-08-22T18:45:17.919Z,2.1
2022-08-22T18:47:18.144Z,1.4
2022-08-22T18:49:21.354Z,1.1
2022-08-22T18:53:17.921Z,0.5
2022-08-22T18:55:21.916Z,0.4
2022-08-22T18:57:18.616Z,0.3
2022-08-22T18:59:18.809Z,0.3
2022-08-22T19:01:24.711Z,0.3
2022-08-22T19:03:18.065Z,0.3
2022-08-22T19:05:18.469Z,0.2
2022-08-22T19:07:21.888Z,0.2
2022-08-22T19:09:25.027Z,0.2
2022-08-22T19:11:21.181Z,0.2
2022-08-22T19:13:21.673Z,0.2
2022-08-22T19:15:18.593Z,0.2
2022-08-22T19:17:17.903Z,1
2022-08-22T19:19:21.515Z,1
2022-08-22T19:21:17.806Z,1
2022-08-22T19:23:18.487Z,1
2022-08-22T19:25:18.085Z,1
2022-08-22T19:27:18.749Z,1
2022-08-22T19:29:17.819Z,1
2022-08-22T19:31:21.632Z,1
2022-08-22T19:33:18.430Z,1
2022-08-22T19:35:17.930Z,1
2022-08-22T19:37:31.196Z,1
2022-08-22T19:39:17.789Z,1
2022-08-22T19:41:21.649Z,1
2022-08-22T19:43:17.922Z,1
2022-08-22T19:45:23.528Z,1
2022-08-22T19:47:21.694Z,1
2022-08-22T19:49:18.384Z,1
2022-08-22T19:51:17.920Z,1
2022-08-22T19:53:21.993Z,1
2022-08-22T19:55:18.678Z,1
2022-08-22T19:57:18.458Z,1
2022-08-22T19:59:18.280Z,1
2022-08-22T20:01:25.197Z,1
2022-08-22T20:03:18.418Z,1
2022-08-22T20:05:17.980Z,1
2022-08-22T20:07:21.077Z,1
2022-08-22T20:09:25.089Z,1
2022-08-22T20:11:21.729Z,1
2022-08-22T20:13:24.690Z,1
2022-08-22T20:15:17.809Z,1
2022-08-22T20:17:25.145Z,1
2022-08-22T20:19:25.201Z,1
2022-08-22T20:21:17.971Z,1
2022-08-22T20:23:18.698Z,1
2022-08-22T20:25:35.375Z,1
2022-08-22T20:27:22.019Z,1
2022-08-22T20:29:18.531Z,1
2022-08-22T20:31:18.135Z,1
2022-08-22T20:33:22.215Z,1
2022-08-22T20:35:19.011Z,1
2022-08-22T20:37:32.151Z,1
2022-08-22T20:41:20.937Z,1
2022-08-22T20:43:22.179Z,1
2022-08-22T20:45:18.075Z,1
2022-08-22T20:47:19.663Z,1
2022-08-22T20:49:17.973Z,1
2022-08-22T20:51:18.590Z,1
2022-08-22T20:53:23.867Z,1
2022-08-22T20:55:25.436Z,1
2022-08-22T20:57:21.221Z,1
2022-08-22T20:59:18.121Z,1
2022-08-22T21:01:25.271Z,1
2022-08-22T21:03:25.362Z,1
2022-08-22T21:05:18.621Z,1
2022-08-22T21:07:24.418Z,1
2022-08-22T21:09:22.134Z,1
2022-08-22T21:11:18.718Z,1
2022-08-22T21:13:22.199Z,1
2022-08-22T21:15:18.084Z,1
2022-08-22T21:17:21.717Z,1
2022-08-22T21:19:18.591Z,1
2022-08-22T21:21:18.528Z,1
2022-08-22T21:23:19.004Z,1
2022-08-22T21:25:18.134Z,1
2022-08-22T21:27:22.018Z,1
2022-08-22T21:29:18.973Z,1
2022-08-22T21:31:18.131Z,1
2022-08-22T21:33:23.911Z,1
2022-08-22T21:35:18.967Z,1
2022-08-22T21:37:18.626Z,1
2022-08-22T21:39:18.782Z,1
2022-08-22T21:41:20.086Z,1
2022-08-22T21:43:18.752Z,1
2022-08-22T21:45:18.146Z,1
2022-08-22T21:47:19.176Z,1
2022-08-22T21:49:18.599Z,1
2022-08-22T21:51:20.153Z,1
2022-08-22T21:53:22.257Z,1
2022-08-22T21:55:18.542Z,1
2022-08-22T21:57:18.120Z,1
2022-08-22T21:59:20.261Z,1
2022-08-22T22:01:22.091Z,1
2022-08-22T22:03:18.095Z,1
2022-08-22T22:05:23.268Z,1
2022-08-22T22:07:18.078Z,1
2022-08-22T22:11:18.167Z,1
2022-08-22T22:13:23.798Z,1
2022-08-22T22:15:18.644Z,1
2022-08-22T22:17:22.191Z,1
2022-08-22T22:19:18.207Z,1
2022-08-22T22:21:21.855Z,1
2022-08-22T22:23:22.036Z,1
2022-08-22T22:25:39.293Z,1
2022-08-22T22:27:22.182Z,1
2022-08-22T22:29:18.885Z,1
2022-08-22T22:31:22.083Z,1
2022-08-22T22:33:18.761Z,1
2022-08-22T22:35:22.262Z,1
2022-08-22T22:37:18.795Z,1
2022-08-22T22:39:18.768Z,1
2022-08-22T22:41:18.140Z,1
2022-08-22T22:43:21.221Z,1
2022-08-22T22:45:18.668Z,1
2022-08-22T22:47:18.128Z,1
2022-08-22T22:49:18.051Z,1
2022-08-22T22:51:18.764Z,1
2022-08-22T22:53:28.553Z,1
2022-08-22T22:55:24.055Z,1
2022-08-22T22:57:19.973Z,1
2022-08-22T22:59:25.390Z,1
2022-08-22T23:01:21.809Z,1
2022-08-22T23:03:22.072Z,1
2022-08-22T23:05:18.312Z,1
2022-08-22T23:07:18.900Z,1
2022-08-22T23:09:18.741Z,1
2022-08-22T23:11:22.044Z,1
2022-08-22T23:13:18.157Z,1
2022-08-22T23:15:19.026Z,1
2022-08-22T23:19:18.143Z,1
2022-08-22T23:21:22.256Z,1
2022-08-22T23:23:18.444Z,1
2022-08-22T23:25:22.002Z,1
2022-08-22T23:27:18.107Z,1
2022-08-22T23:29:18.993Z,1
2022-08-22T23:31:18.151Z,1
2022-08-22T23:33:21.699Z,1
2022-08-22T23:35:21.418Z,1
2022-08-22T23:37:21.411Z,1
2022-08-22T23:39:22.183Z,1
2022-08-22T23:41:18.805Z,1
2022-08-22T23:43:18.107Z,1
2022-08-22T23:45:18.860Z,1
2022-08-22T23:47:22.944Z,1
2022-08-22T23:49:18.583Z,1
2022-08-22T23:51:18.787Z,1
2022-08-22T23:53:18.447Z,1
2022-08-22T23:55:18.420Z,1
2022-08-22T23:57:18.887Z,1
2022-08-22T23:59:18.951Z,1
